Kezdőlap
METAR-TAF:

METAR-TAF

Repülőterek :

Ipoh, Malajzia

földrajzi szélesség: 04-34-09N, földrajzi hosszúság: 101-05-35E, magasság: 40 m

Jelenlegi meteorológiai megfigyelések

A jelentés 54 perccel ezelõtt készült, 23:00 UTC
Északkeleti szél 3 kt, északi és keleti között változik
Hőmérséklet 26°C
Páratartalom 94%
Légköri nyomás 1008 hPa
Látótávolság: 7000 m
Kevés felhő 300 lábon

METAR: WMKI 192300Z 04003KT 350V080 7000 FEW003 26/25 Q1008

Idő: 07:54 (23:54 UTC)

Előrejelzés

A jelentés 54 perccel ezelõtt készült, 23:00 UTC
Az előrejelzés 20-én 00 óra UTC és 21-én 00 óra UTC között érvényes
Különbözõ irányokból fújó szél 3 kt
Látótávolság: 8000 m
Kevés felhő 2000 lábon
20-én 06 óra UTC és 20-én 10 óra UTC között ideiglenes
Látótávolság: 6000 m
Kevés felhő 1700 lábon, Cumulonimbus.
zivatar, esõ,

TAF: WMKI 192300Z 2000/2100 VRB03KT 8000 FEW020 TEMPO 2006/2010 6000 TSRA FEW017CB

Meteorológiai megfigyelések és előrejelzések több, mint 4000 repülőtéren (METAR és TAF jelentéseket).

A térképen piros és sárga pontok jelzik az elérhető meteorológiai állomásokat.

Mozgassa az egeret a pont fölött, hogy megjelenjen az állomás neve.

Azután kattintson az időjárási megfigyelések és előrejelzések megtekintéséhez.

A térkép megváltoztatása: kattintson a fekete keresztel jelölt zöld gombra ráközelítéshez, a vonallal jelölt zöld gombra távolításhoz, vagy a zöld nyilakra a szomszédos térképek eléréséhez.


METAR-TAF: